MSC Clorinda — 3FDW7 — position and weather

sailwx.info

Track history (hours):
 
Tides and Currents Weather Stations Pressure Air Temp Water Temp Dewpoint Dewpoint Depression Visibility Wind Speed Wind Dir Waves Ship Positions

MSC Clorinda

Last reported at 2016-Jun-22 19:10 UTC. Time now 2016-Jun-29 16:33 UTC.
Position N 01°60' E 102°12'.

Length 366 m; draft 14.3 m.

Type: Ship (hazmat cat A). MMSI: 373233000.

Date/timePositionNaut miles runAvg speedWind from/ knotsBaromVisibWave heightAir tempDewpointWater temp
2016-Jun-22 19:10N 01°60' E 102°12'1320.4
2016-Jun-22 18:33N 01°53' E 102°22'2020.0
2016-Jun-22 17:33N 01°44' E 102°40'2018.9
2016-Jun-22 16:31N 01°35' E 102°57'5417.8
2016-Jun-22 13:30N 01°09' E 103°45'6 5.3
2016-Jun-22 12:24N 01°13' E 103°49'1 1.4
2016-Jun-22 11:33N 01°13' E 103°48'4 3.8
2016-Jun-22 10:33N 01°16' E 103°46'0 0.0
2016-Jun-22 09:32N 01°16' E 103°46'0 0.0
2016-Jun-22 08:20N 01°16' E 103°46'0 0.0
2016-Jun-22 06:08N 01°16' E 103°46'0 0.0
2016-Jun-22 04:32N 01°16' E 103°46'0 0.0
2016-Jun-22 03:32N 01°16' E 103°46'0 0.0
2016-Jun-22 02:32N 01°16' E 103°46'0 0.0
2016-Jun-22 01:32N 01°16' E 103°46'0 0.0
2016-Jun-22 00:32N 01°16' E 103°46'0 0.0
2016-Jun-21 23:32N 01°16' E 103°46'0 0.0
2016-Jun-21 22:05N 01°16' E 103°46'0 0.0
2016-Jun-21 21:26N 01°16' E 103°46'0 0.0
2016-Jun-21 20:32N 01°16' E 103°46'0 0.0
2016-Jun-21 19:14N 01°16' E 103°46'0 0.0
2016-Jun-21 18:32N 01°16' E 103°46'0 0.0
2016-Jun-21 15:32N 01°16' E 103°46'0 0.1
2016-Jun-21 14:20N 01°16' E 103°46'3 3.5
2016-Jun-21 13:33N 01°14' E 103°47'8 7.7
2016-Jun-21 12:33N 01°14' E 103°55'7 6.8
2016-Jun-21 11:33N 01°16' E 104°01'8 7.7
2016-Jun-21 10:33N 01°17' E 104°09'  
2016-Jun-18 03:33N 22°03' E 114°25'1817.5
2016-Jun-18 02:32N 22°20' E 114°27'17 2.7
2016-Jun-17 20:04N 22°34' E 114°16'0 0.0
2016-Jun-17 18:28N 22°34' E 114°16'0 0.0
2016-Jun-17 17:22N 22°34' E 114°16'0 0.0
2016-Jun-17 15:28N 22°34' E 114°16'20 6.5
2016-Jun-17 12:23N 22°17' E 114°28'1213.7
2016-Jun-17 11:32N 22°07' E 114°22'1813.7
2016-Jun-17 10:15N 22°17' E 114°06'1311.3
2016-Jun-17 09:05N 22°23' E 113°54'5 8.7
2016-Jun-17 08:33N 22°27' E 113°53'0 0.1
2016-Jun-17 07:31N 22°28' E 113°53'0 0.0
2016-Jun-17 06:31N 22°28' E 113°53'0 0.0
2016-Jun-17 05:25N 22°28' E 113°53'0 0.0
2016-Jun-17 04:31N 22°28' E 113°53'0 0.0
2016-Jun-17 03:31N 22°28' E 113°53'0 0.0
2016-Jun-17 02:31N 22°28' E 113°53'0 0.0
2016-Jun-17 01:31N 22°28' E 113°53'0 0.0
2016-Jun-17 00:31N 22°28' E 113°53'0 0.0
2016-Jun-16 22:19N 22°28' E 113°53'0 0.0
2016-Jun-16 21:31N 22°28' E 113°53'0 0.2
2016-Jun-16 20:33N 22°27' E 113°53'14 7.0
2016-Jun-16 18:33N 22°20' E 114°05'16 3.1
2016-Jun-16 13:31N 22°16' E 113°49'5 0.3
2016-Jun-15 21:27N 22°11' E 113°50'26515.2
2016-Jun-15 04:05N 23°53' E 118°15'1018.1
2016-Jun-15 03:31N 24°03' E 118°19'1616.6
2016-Jun-15 02:33N 24°18' E 118°13'1312.8
2016-Jun-15 01:33N 24°26' E 118°02'1 0.6
2016-Jun-15 00:32N 24°26' E 118°02'0 0.0
2016-Jun-14 23:32N 24°26' E 118°02'0 0.0
2016-Jun-14 22:32N 24°26' E 118°02'0 0.0
2016-Jun-14 21:32N 24°26' E 118°02'0 0.0
2016-Jun-14 20:32N 24°26' E 118°02'0 0.0
2016-Jun-14 19:32N 24°26' E 118°02'0 0.0
2016-Jun-14 18:32N 24°26' E 118°02'0 0.0
2016-Jun-14 17:32N 24°26' E 118°02'0 0.0
2016-Jun-14 16:29N 24°26' E 118°02'0 0.0
2016-Jun-14 15:32N 24°26' E 118°02'0 0.0
2016-Jun-14 14:32N 24°26' E 118°02'4 4.1
2016-Jun-14 13:33N 24°25' E 118°06'10 9.7
2016-Jun-14 12:33N 24°18' E 118°13'1815.5
2016-Jun-14 11:24N 24°15' E 118°32'1820.2
2016-Jun-14 10:31N 24°25' E 118°48'1919.9
2016-Jun-14 09:34N 24°35' E 119°06'39617.2
2016-Jun-13 10:32N 30°33' E 122°18'  
Track history (hours):
 
Tides and Currents Weather Stations Pressure Air Temp Water Temp Dewpoint Dewpoint Depression Visibility Wind Speed Wind Dir Waves Ship Positions

MSC Clorinda

Last reported at 2016-Jun-22 19:10 UTC. Time now 2016-Jun-29 16:33 UTC.
Position N 01°60' E 102°12'.

Length 366 m; draft 14.3 m.

Type: Ship (hazmat cat A). MMSI: 373233000.

Date/timePositionNaut miles runAvg speedWind from/ knotsBaromVisibWave heightAir tempDewpointWater temp
2016-Jun-22 19:10N 01°60' E 102°12'1320.4
2016-Jun-22 18:33N 01°53' E 102°22'2020.0
2016-Jun-22 17:33N 01°44' E 102°40'2018.9
2016-Jun-22 16:31N 01°35' E 102°57'5417.8
2016-Jun-22 13:30N 01°09' E 103°45'6 5.3
2016-Jun-22 12:24N 01°13' E 103°49'1 1.4
2016-Jun-22 11:33N 01°13' E 103°48'4 3.8
2016-Jun-22 10:33N 01°16' E 103°46'0 0.0
2016-Jun-22 09:32N 01°16' E 103°46'0 0.0
2016-Jun-22 08:20N 01°16' E 103°46'0 0.0
2016-Jun-22 06:08N 01°16' E 103°46'0 0.0
2016-Jun-22 04:32N 01°16' E 103°46'0 0.0
2016-Jun-22 03:32N 01°16' E 103°46'0 0.0
2016-Jun-22 02:32N 01°16' E 103°46'0 0.0
2016-Jun-22 01:32N 01°16' E 103°46'0 0.0
2016-Jun-22 00:32N 01°16' E 103°46'0 0.0
2016-Jun-21 23:32N 01°16' E 103°46'0 0.0
2016-Jun-21 22:05N 01°16' E 103°46'0 0.0
2016-Jun-21 21:26N 01°16' E 103°46'0 0.0
2016-Jun-21 20:32N 01°16' E 103°46'0 0.0
2016-Jun-21 19:14N 01°16' E 103°46'0 0.0
2016-Jun-21 18:32N 01°16' E 103°46'0 0.0
2016-Jun-21 15:32N 01°16' E 103°46'0 0.1
2016-Jun-21 14:20N 01°16' E 103°46'3 3.5
2016-Jun-21 13:33N 01°14' E 103°47'8 7.7
2016-Jun-21 12:33N 01°14' E 103°55'7 6.8
2016-Jun-21 11:33N 01°16' E 104°01'8 7.7
2016-Jun-21 10:33N 01°17' E 104°09'  
2016-Jun-18 03:33N 22°03' E 114°25'1817.5
2016-Jun-18 02:32N 22°20' E 114°27'17 2.7
2016-Jun-17 20:04N 22°34' E 114°16'0 0.0
2016-Jun-17 18:28N 22°34' E 114°16'0 0.0
2016-Jun-17 17:22N 22°34' E 114°16'0 0.0
2016-Jun-17 15:28N 22°34' E 114°16'20 6.5
2016-Jun-17 12:23N 22°17' E 114°28'1213.7
2016-Jun-17 11:32N 22°07' E 114°22'1813.7
2016-Jun-17 10:15N 22°17' E 114°06'1311.3
2016-Jun-17 09:05N 22°23' E 113°54'5 8.7
2016-Jun-17 08:33N 22°27' E 113°53'0 0.1
2016-Jun-17 07:31N 22°28' E 113°53'0 0.0
2016-Jun-17 06:31N 22°28' E 113°53'0 0.0
2016-Jun-17 05:25N 22°28' E 113°53'0 0.0
2016-Jun-17 04:31N 22°28' E 113°53'0 0.0
2016-Jun-17 03:31N 22°28' E 113°53'0 0.0
2016-Jun-17 02:31N 22°28' E 113°53'0 0.0
2016-Jun-17 01:31N 22°28' E 113°53'0 0.0
2016-Jun-17 00:31N 22°28' E 113°53'0 0.0
2016-Jun-16 22:19N 22°28' E 113°53'0 0.0
2016-Jun-16 21:31N 22°28' E 113°53'0 0.2
2016-Jun-16 20:33N 22°27' E 113°53'14 7.0
2016-Jun-16 18:33N 22°20' E 114°05'16 3.1
2016-Jun-16 13:31N 22°16' E 113°49'5 0.3
2016-Jun-15 21:27N 22°11' E 113°50'26515.2
2016-Jun-15 04:05N 23°53' E 118°15'1018.1
2016-Jun-15 03:31N 24°03' E 118°19'1616.6
2016-Jun-15 02:33N 24°18' E 118°13'1312.8
2016-Jun-15 01:33N 24°26' E 118°02'1 0.6
2016-Jun-15 00:32N 24°26' E 118°02'0 0.0
2016-Jun-14 23:32N 24°26' E 118°02'0 0.0
2016-Jun-14 22:32N 24°26' E 118°02'0 0.0
2016-Jun-14 21:32N 24°26' E 118°02'0 0.0
2016-Jun-14 20:32N 24°26' E 118°02'0 0.0
2016-Jun-14 19:32N 24°26' E 118°02'0 0.0
2016-Jun-14 18:32N 24°26' E 118°02'0 0.0
2016-Jun-14 17:32N 24°26' E 118°02'0 0.0
2016-Jun-14 16:29N 24°26' E 118°02'0 0.0
2016-Jun-14 15:32N 24°26' E 118°02'0 0.0
2016-Jun-14 14:32N 24°26' E 118°02'4 4.1
2016-Jun-14 13:33N 24°25' E 118°06'10 9.7
2016-Jun-14 12:33N 24°18' E 118°13'1815.5
2016-Jun-14 11:24N 24°15' E 118°32'1820.2
2016-Jun-14 10:31N 24°25' E 118°48'1919.9
2016-Jun-14 09:34N 24°35' E 119°06'39617.2
2016-Jun-13 10:32N 30°33' E 122°18'  

Dump ship's entire track history